Time;durP1;ratioP1;P1;durP2;ratioP2;P2;SDS_P1;SDS_P2;PMS_P1;PMS_P2;Temp;Humidity;BMP_temperature;BMP_pressure;BME280_temperature;BME280_humidity;BME280_pressure;Samples;Min_cycle;Max_cycle;Signal;HPM_P1;HPM_P2
2021/04/25 00:00:22;;;;;;;4.00;1.33;;;9.60;46.80;;;;;;5091996;28;20167;-79
2021/04/25 00:02:48;;;;;;;2.60;1.33;;;9.60;46.80;;;;;;5073447;28;20209;-79
2021/04/25 00:05:20;;;;;;;2.88;1.00;;;9.50;46.80;;;;;;5073577;28;20160;-80
2021/04/25 00:07:47;;;;;;;2.03;0.95;;;9.50;47.00;;;;;;5091306;28;20170;-80
2021/04/25 00:10:17;;;;;;;5.13;1.35;;;9.40;46.80;;;;;;5056579;28;20311;-80
2021/04/25 00:12:43;;;;;;;3.95;0.93;;;9.40;46.80;;;;;;5091503;28;20176;-80
2021/04/25 00:15:24;;;;;;;1.75;0.90;;;9.40;47.00;;;;;;5073378;28;20168;-80
2021/04/25 00:17:51;;;;;;;2.08;0.90;;;9.30;47.10;;;;;;5060581;28;20203;-80
2021/04/25 00:20:17;;;;;;;2.00;1.25;;;9.30;47.10;;;;;;5091459;28;20170;-80
2021/04/25 00:22:44;;;;;;;2.45;1.27;;;9.20;47.20;;;;;;5091769;28;20248;-79
2021/04/25 00:25:11;;;;;;;2.33;1.10;;;9.20;47.30;;;;;;5073495;28;20174;-80
2021/04/25 00:27:37;;;;;;;5.97;1.45;;;9.10;47.40;;;;;;5072898;28;20191;-80
2021/04/25 00:30:08;;;;;;;3.75;1.00;;;9.10;47.20;;;;;;5090218;28;20175;-80
2021/04/25 00:32:34;;;;;;;3.35;1.30;;;9.00;47.30;;;;;;5056880;28;20251;-80
2021/04/25 00:35:00;;;;;;;2.23;0.90;;;9.00;47.40;;;;;;5073413;28;20274;-80
2021/04/25 00:37:26;;;;;;;3.28;1.00;;;9.00;47.70;;;;;;5090769;28;20597;-80
2021/04/25 00:39:52;;;;;;;6.47;1.40;;;9.00;47.60;;;;;;5090041;28;20178;-80
2021/04/25 00:42:18;;;;;;;1.93;0.93;;;8.90;47.80;;;;;;5073264;28;20159;-79
2021/04/25 00:44:44;;;;;;;2.33;1.30;;;8.90;47.80;;;;;;5073458;28;20168;-79
2021/04/25 00:47:13;;;;;;;6.13;1.50;;;8.90;48.20;;;;;;5072798;28;20213;-79
2021/04/25 00:49:39;;;;;;;4.10;1.23;;;8.90;48.20;;;;;;5073250;28;20185;-79
2021/04/25 00:52:07;;;;;;;3.15;1.15;;;8.80;48.00;;;;;;5057751;28;20176;-79
2021/04/25 00:54:33;;;;;;;2.55;1.38;;;8.80;48.20;;;;;;5075575;28;20169;-79
2021/04/25 00:56:59;;;;;;;4.03;1.70;;;8.70;48.10;;;;;;5035906;28;20200;-79
2021/04/25 00:59:27;;;;;;;2.50;1.10;;;8.70;48.10;;;;;;5053214;28;20256;-79
2021/04/25 01:01:53;;;;;;;2.00;1.10;;;8.70;48.20;;;;;;5052873;28;20928;-79
2021/04/25 01:04:22;;;;;;;6.03;1.60;;;8.60;48.10;;;;;;5070858;28;20161;-79
2021/04/25 01:06:48;;;;;;;5.78;1.30;;;8.60;48.90;;;;;;5070512;28;20603;-79
2021/04/25 01:09:14;;;;;;;4.50;0.90;;;8.50;48.30;;;;;;5053032;28;20164;-79
2021/04/25 01:11:41;;;;;;;4.77;1.33;;;8.50;48.40;;;;;;5052943;28;20173;-79
2021/04/25 01:14:06;;;;;;;1.92;1.05;;;8.50;48.70;;;;;;5070945;28;20225;-80
2021/04/25 01:16:35;;;;;;;2.23;1.10;;;8.40;48.70;;;;;;5070383;28;20675;-80
2021/04/25 01:19:03;;;;;;;5.43;1.52;;;8.40;48.60;;;;;;5052865;28;20282;-80
2021/04/25 01:21:28;;;;;;;4.40;1.50;;;8.30;48.70;;;;;;5070847;28;20184;-80
2021/04/25 01:23:54;;;;;;;2.30;1.10;;;8.30;48.90;;;;;;5052961;28;20573;-79
2021/04/25 01:26:23;;;;;;;4.07;1.37;;;8.30;49.00;;;;;;5054721;28;20215;-79
2021/04/25 01:28:49;;;;;;;3.88;1.23;;;8.20;49.20;;;;;;5074811;28;20207;-79
2021/04/25 01:31:14;;;;;;;2.65;1.40;;;8.20;49.10;;;;;;5061338;28;20176;-79
2021/04/25 01:33:40;;;;;;;4.13;1.60;;;8.10;49.30;;;;;;5074446;28;20693;-79
2021/04/25 01:36:08;;;;;;;4.28;1.30;;;8.10;49.60;;;;;;5056696;28;20309;-79
2021/04/25 01:38:39;;;;;;;2.85;1.33;;;8.00;49.50;;;;;;5073741;28;20706;-79
2021/04/25 01:41:07;;;;;;;2.22;1.15;;;8.00;49.40;;;;;;5040468;28;20263;-79
2021/04/25 01:43:33;;;;;;;2.83;1.87;;;8.00;49.50;;;;;;5039653;28;20272;-79
2021/04/25 01:45:59;;;;;;;6.38;1.20;;;8.00;49.80;;;;;;5039424;28;21455;-79
2021/04/25 01:48:25;;;;;;;3.00;1.43;;;7.90;49.50;;;;;;5055808;28;20207;-79
2021/04/25 01:50:51;;;;;;;3.57;1.50;;;7.90;49.80;;;;;;5079058;28;20669;-79
2021/04/25 01:53:27;;;;;;;7.18;1.63;;;7.90;49.70;;;;;;5094184;28;20570;-79
2021/04/25 01:55:53;;;;;;;3.15;1.90;;;7.80;49.90;;;;;;5076042;28;20547;-79
2021/04/25 01:58:18;;;;;;;4.70;1.87;;;7.80;50.30;;;;;;5075468;28;20200;-79
2021/04/25 02:00:46;;;;;;;3.23;1.60;;;7.80;50.40;;;;;;5075918;28;20195;-79
2021/04/25 02:03:14;;;;;;;5.43;2.60;;;7.70;50.30;;;;;;5094229;28;20167;-78
2021/04/25 02:05:42;;;;;;;3.75;2.70;;;7.70;50.30;;;;;;5065473;28;20279;-78
2021/04/25 02:08:08;;;;;;;7.20;2.75;;;7.70;50.40;;;;;;5061090;28;20262;-79
2021/04/25 02:10:35;;;;;;;6.05;4.22;;;7.60;50.30;;;;;;5059043;28;20183;-79
2021/04/25 02:13:05;;;;;;;8.77;3.78;;;7.60;50.80;;;;;;5076033;28;20164;-79
2021/04/25 02:15:31;;;;;;;8.98;4.88;;;7.60;50.80;;;;;;5075569;28;20168;-78
2021/04/25 02:17:57;;;;;;;6.35;4.63;;;7.50;51.00;;;;;;5093212;28;20199;-78
2021/04/25 02:20:23;;;;;;;5.20;3.70;;;7.50;51.10;;;;;;5075913;28;20160;-79
2021/04/25 02:22:51;;;;;;;9.00;4.40;;;7.50;50.90;;;;;;5075481;28;20557;-79
2021/04/25 02:25:17;;;;;;;8.63;4.93;;;7.50;50.90;;;;;;5075151;28;20233;-79
2021/04/25 02:27:43;;;;;;;5.63;4.10;;;7.50;51.00;;;;;;5058237;28;20197;-80
2021/04/25 02:30:15;;;;;;;7.45;4.05;;;7.50;51.10;;;;;;5058632;28;20160;-79
2021/04/25 02:32:41;;;;;;;6.28;4.43;;;7.40;51.30;;;;;;5075356;28;20199;-79
2021/04/25 02:35:09;;;;;;;4.97;3.67;;;7.40;51.20;;;;;;5075678;28;20583;-79
2021/04/25 02:37:35;;;;;;;13.82;4.38;;;7.40;51.30;;;;;;5058506;28;20278;-80
2021/04/25 02:40:02;;;;;;;6.07;4.00;;;7.40;51.30;;;;;;5093428;28;20576;-80
2021/04/25 02:42:28;;;;;;;6.07;3.92;;;7.30;51.30;;;;;;5093185;28;20196;-80
2021/04/25 02:44:53;;;;;;;4.03;3.47;;;7.30;51.60;;;;;;5080700;28;20156;-79
2021/04/25 02:47:19;;;;;;;3.83;2.37;;;7.30;51.50;;;;;;5058126;28;20192;-79
2021/04/25 02:49:45;;;;;;;3.43;2.10;;;7.20;51.70;;;;;;5075123;28;20193;-79
2021/04/25 02:52:10;;;;;;;3.70;2.27;;;7.20;51.70;;;;;;5076476;28;20255;-79
2021/04/25 02:54:36;;;;;;;4.77;2.67;;;7.20;51.60;;;;;;5038207;28;20168;-79
2021/04/25 02:57:02;;;;;;;4.50;2.37;;;7.20;51.80;;;;;;5054265;28;20189;-79
2021/04/25 02:59:28;;;;;;;4.73;2.70;;;7.20;52.10;;;;;;5072696;28;20211;-79
2021/04/25 03:01:53;;;;;;;5.53;2.93;;;7.10;52.10;;;;;;5074272;28;20991;-78
2021/04/25 03:04:19;;;;;;;6.13;2.60;;;7.10;52.20;;;;;;5074847;28;20172;-78
2021/04/25 03:06:45;;;;;;;5.90;2.93;;;7.10;52.10;;;;;;5056324;28;20192;-79
2021/04/25 03:09:10;;;;;;;3.40;2.20;;;7.10;52.30;;;;;;5054676;28;20160;-79
2021/04/25 03:11:36;;;;;;;4.60;2.40;;;7.00;52.40;;;;;;5038199;28;20255;-78
2021/04/25 03:14:02;;;;;;;2.83;2.10;;;7.00;52.40;;;;;;5054367;28;20195;-78
2021/04/25 03:16:29;;;;;;;3.55;1.65;;;7.00;52.50;;;;;;5054063;28;20195;-79
2021/04/25 03:18:55;;;;;;;5.57;2.30;;;7.00;52.70;;;;;;5021009;28;20254;-78
2021/04/25 03:21:21;;;;;;;5.63;2.70;;;7.00;52.70;;;;;;5075156;28;20172;-79
2021/04/25 03:23:47;;;;;;;5.90;2.40;;;7.00;52.90;;;;;;5040169;28;20576;-79
2021/04/25 03:26:12;;;;;;;4.00;2.05;;;6.90;52.70;;;;;;5054207;28;20188;-78
2021/04/25 03:28:38;;;;;;;4.20;2.30;;;6.90;53.00;;;;;;5037548;28;20255;-79
2021/04/25 03:31:04;;;;;;;6.37;2.70;;;6.90;53.20;;;;;;5072182;28;20172;-79
2021/04/25 03:33:30;;;;;;;3.83;2.07;;;6.80;53.10;;;;;;5070948;28;20930;-79
2021/04/25 03:35:56;;;;;;;5.70;3.80;;;6.90;53.50;;;;;;5053731;28;20637;-79
2021/04/25 03:38:25;;;;;;;4.22;2.08;;;6.80;53.50;;;;;;5037219;28;20188;-79
2021/04/25 03:40:51;;;;;;;4.15;2.38;;;6.80;53.60;;;;;;5054032;28;20164;-80
2021/04/25 03:43:17;;;;;;;3.95;2.08;;;6.80;53.50;;;;;;5070647;28;20529;-80
2021/04/25 03:45:43;;;;;;;3.25;2.10;;;6.80;53.60;;;;;;5037282;28;20241;-79
2021/04/25 03:48:08;;;;;;;4.63;2.37;;;6.80;53.70;;;;;;5053117;28;20640;-79
2021/04/25 03:50:34;;;;;;;4.43;2.57;;;6.80;53.80;;;;;;5039940;28;20593;-79
2021/04/25 03:53:00;;;;;;;6.43;2.73;;;6.70;53.70;;;;;;5073924;28;20171;-79
2021/04/25 03:55:26;;;;;;;5.93;2.70;;;6.70;54.30;;;;;;5092118;28;20192;-79
2021/04/25 03:57:52;;;;;;;4.90;2.73;;;6.70;54.00;;;;;;5073565;28;20277;-79
2021/04/25 04:00:21;;;;;;;6.43;2.60;;;6.70;54.10;;;;;;5077877;28;20281;-79
2021/04/25 04:02:47;;;;;;;7.20;2.33;;;6.70;54.40;;;;;;5057118;28;20203;-79
2021/04/25 04:05:13;;;;;;;7.63;2.83;;;6.60;54.40;;;;;;5095159;28;20581;-81
2021/04/25 04:07:39;;;;;;;4.10;2.30;;;6.60;54.60;;;;;;5094076;28;21153;-81
2021/04/25 04:10:06;;;;;;;3.83;2.10;;;6.60;54.50;;;;;;5059538;28;20206;-80
2021/04/25 04:12:32;;;;;;;5.45;2.50;;;6.60;54.70;;;;;;5077094;28;20156;-80
2021/04/25 04:14:58;;;;;;;7.32;3.17;;;6.60;55.10;;;;;;5098322;28;20168;-80
2021/04/25 04:17:23;;;;;;;4.87;2.23;;;6.50;55.30;;;;;;5100052;28;20197;-80
2021/04/25 04:19:49;;;;;;;4.03;2.03;;;6.60;55.30;;;;;;5100015;28;20241;-80
2021/04/25 04:22:15;;;;;;;4.73;2.50;;;6.60;55.10;;;;;;5101414;28;20642;-80
2021/04/25 04:24:41;;;;;;;7.03;2.43;;;6.50;55.30;;;;;;5077618;28;20163;-80
2021/04/25 04:27:07;;;;;;;3.17;2.13;;;6.50;55.40;;;;;;5094908;28;20278;-79
2021/04/25 04:29:35;;;;;;;4.57;2.60;;;6.50;55.70;;;;;;5094643;28;20200;-80
2021/04/25 04:32:00;;;;;;;4.35;2.88;;;6.50;55.50;;;;;;5075775;28;20708;-80
2021/04/25 04:34:26;;;;;;;5.10;2.77;;;6.50;55.70;;;;;;5074681;28;20203;-80
2021/04/25 04:36:53;;;;;;;4.57;2.70;;;6.50;55.80;;;;;;5095256;28;20198;-80
2021/04/25 04:39:21;;;;;;;4.95;2.22;;;6.50;55.80;;;;;;5092039;28;20254;-80
2021/04/25 04:41:53;;;;;;;10.52;2.58;;;6.50;55.80;;;;;;5092280;28;20170;-80
2021/04/25 04:44:19;;;;;;;5.23;2.70;;;6.50;56.00;;;;;;5091746;28;20636;-80
2021/04/25 04:46:45;;;;;;;4.90;2.60;;;6.50;55.90;;;;;;5091341;28;20278;-79
2021/04/25 04:49:11;;;;;;;4.93;2.53;;;6.50;56.00;;;;;;5091682;28;20643;-80
2021/04/25 04:51:37;;;;;;;3.83;2.55;;;6.50;56.20;;;;;;5061891;28;20176;-80
2021/04/25 04:54:03;;;;;;;4.43;2.58;;;6.50;56.40;;;;;;5053589;28;20161;-81
2021/04/25 04:56:36;;;;;;;6.93;2.35;;;6.50;56.60;;;;;;5053132;28;20604;-80
2021/04/25 04:59:04;;;;;;;4.32;2.53;;;6.50;56.70;;;;;;5054113;28;20199;-80
2021/04/25 05:01:30;;;;;;;4.63;1.83;;;6.60;56.80;;;;;;5073970;28;20219;-80
2021/04/25 05:03:56;;;;;;;4.13;2.73;;;6.60;57.00;;;;;;5075506;28;20218;-80
2021/04/25 05:06:21;;;;;;;7.20;3.30;;;6.60;57.10;;;;;;5057383;28;20308;-80
2021/04/25 05:08:47;;;;;;;5.70;2.57;;;6.60;57.40;;;;;;5075983;28;20970;-80
2021/04/25 05:11:13;;;;;;;4.27;2.40;;;6.70;57.60;;;;;;5078741;28;20169;-80
2021/04/25 05:13:40;;;;;;;4.90;3.10;;;6.70;57.60;;;;;;5080104;28;20172;-80
2021/04/25 05:16:05;;;;;;;7.13;3.20;;;6.80;57.50;;;;;;5097438;28;20213;-80
2021/04/25 05:18:31;;;;;;;9.37;3.00;;;6.80;57.70;;;;;;5080316;28;20184;-80
2021/04/25 05:21:00;;;;;;;4.27;2.53;;;6.80;57.70;;;;;;5080579;28;20206;-81
2021/04/25 05:23:26;;;;;;;4.25;3.15;;;6.90;57.70;;;;;;5098071;28;20168;-81
2021/04/25 05:25:52;;;;;;;4.60;2.73;;;6.90;58.00;;;;;;5098005;28;20216;-80
2021/04/25 05:28:18;;;;;;;6.50;3.57;;;7.00;58.20;;;;;;5095854;28;20204;-80
2021/04/25 05:30:43;;;;;;;5.10;3.63;;;7.00;58.30;;;;;;5076655;28;20165;-80
2021/04/25 05:33:09;;;;;;;10.43;3.67;;;7.10;58.60;;;;;;5060342;28;20211;-80
2021/04/25 05:35:35;;;;;;;4.70;2.60;;;7.10;59.20;;;;;;5080396;28;20226;-80
2021/04/25 05:38:01;;;;;;;6.40;3.17;;;7.20;59.10;;;;;;5081581;28;20168;-80
2021/04/25 05:40:26;;;;;;;4.57;3.10;;;7.30;59.20;;;;;;5081947;28;21075;-80
2021/04/25 05:42:52;;;;;;;5.47;3.00;;;7.30;59.20;;;;;;5082030;28;20650;-80
2021/04/25 05:45:21;;;;;;;4.40;3.30;;;7.40;59.40;;;;;;5080549;28;20632;-80
2021/04/25 05:47:55;;;;;;;5.20;3.30;;;7.50;59.70;;;;;;5079168;28;20255;-80
2021/04/25 05:50:22;;;;;;;4.75;2.88;;;7.60;59.80;;;;;;5080960;28;20159;-80
2021/04/25 05:52:49;;;;;;;4.82;3.55;;;7.70;59.80;;;;;;5077658;28;20176;-80
2021/04/25 05:55:15;;;;;;;4.38;3.25;;;7.80;59.90;;;;;;5063403;28;20733;-81
2021/04/25 05:57:42;;;;;;;8.88;3.67;;;7.90;60.00;;;;;;5078925;28;20227;-80
2021/04/25 06:00:11;;;;;;;7.45;4.35;;;8.00;60.30;;;;;;5062470;28;20177;-80
2021/04/25 06:02:36;;;;;;;6.80;4.95;;;8.10;60.50;;;;;;5079006;28;20164;-80
2021/04/25 06:05:03;;;;;;;6.03;3.77;;;8.20;60.70;;;;;;5077971;28;20179;-81
2021/04/25 06:07:28;;;;;;;5.38;3.38;;;8.30;61.00;;;;;;5076789;28;20219;-80
2021/04/25 06:09:54;;;;;;;4.50;3.33;;;8.50;61.40;;;;;;5077491;28;20675;-80
2021/04/25 06:12:22;;;;;;;7.05;3.88;;;8.70;61.60;;;;;;5075726;28;20664;-79
2021/04/25 06:14:48;;;;;;;4.63;3.27;;;8.90;61.70;;;;;;5078884;28;20188;-80
2021/04/25 06:17:14;;;;;;;5.97;3.50;;;9.00;61.60;;;;;;5061960;28;20719;-81
2021/04/25 06:19:42;;;;;;;4.53;3.30;;;9.30;61.80;;;;;;5080131;28;20183;-79
2021/04/25 06:22:09;;;;;;;5.90;3.43;;;9.50;62.10;;;;;;5081561;28;20169;-80
2021/04/25 06:24:36;;;;;;;5.47;3.58;;;9.70;62.40;;;;;;5062620;28;20233;-80
2021/04/25 06:27:03;;;;;;;6.97;3.63;;;10.00;61.00;;;;;;5063241;28;20710;-80
2021/04/25 06:29:29;;;;;;;8.50;4.50;;;10.30;61.20;;;;;;5084605;28;20200;-80
2021/04/25 06:31:56;;;;;;;6.00;3.70;;;10.60;61.20;;;;;;5083301;28;20160;-79
2021/04/25 06:34:22;;;;;;;6.07;3.75;;;10.90;61.00;;;;;;5080204;28;20693;-80
2021/04/25 06:36:48;;;;;;;4.80;3.35;;;11.20;60.60;;;;;;5080066;28;20271;-80
2021/04/25 06:39:20;;;;;;;6.70;4.20;;;11.40;60.00;;;;;;5079138;28;20208;-80
2021/04/25 06:41:45;;;;;;;5.90;3.60;;;11.60;59.50;;;;;;5061017;28;20256;-80
2021/04/25 06:44:11;;;;;;;4.50;3.37;;;11.80;59.30;;;;;;5058477;28;20183;-79
2021/04/25 06:46:37;;;;;;;4.20;3.30;;;12.00;59.00;;;;;;5043744;28;20255;-79
2021/04/25 06:49:03;;;;;;;4.03;2.63;;;12.10;58.50;;;;;;5054355;28;20617;-79
2021/04/25 06:51:30;;;;;;;4.85;3.38;;;12.20;57.90;;;;;;5036436;28;20173;-79
2021/04/25 06:53:57;;;;;;;9.55;4.30;;;12.20;57.30;;;;;;5053352;28;20173;-79
2021/04/25 06:56:23;;;;;;;5.35;3.75;;;12.20;57.10;;;;;;5054783;28;20545;-80
2021/04/25 06:58:49;;;;;;;4.43;2.87;;;12.20;56.70;;;;;;5061229;28;20280;-80
2021/04/25 07:01:15;;;;;;;5.20;3.80;;;12.20;56.50;;;;;;5066009;28;20180;-80
2021/04/25 07:03:41;;;;;;;4.93;3.15;;;12.20;55.70;;;;;;5080382;28;20206;-80
2021/04/25 07:06:09;;;;;;;4.47;3.20;;;12.20;56.00;;;;;;5072977;28;20188;-79
2021/04/25 07:08:35;;;;;;;3.65;3.15;;;12.40;56.00;;;;;;5075353;28;20218;-79
2021/04/25 07:11:00;;;;;;;4.60;3.80;;;12.50;56.10;;;;;;5060757;28;20168;-80
2021/04/25 07:13:27;;;;;;;5.87;3.30;;;12.50;55.20;;;;;;5058873;28;20588;-78
2021/04/25 07:15:53;;;;;;;4.30;3.67;;;12.50;55.00;;;;;;5056234;28;20188;-79
2021/04/25 07:18:18;;;;;;;5.50;3.73;;;12.50;54.60;;;;;;5073025;28;20188;-80
2021/04/25 07:20:44;;;;;;;4.43;3.57;;;12.50;54.40;;;;;;5056206;28;20176;-79
2021/04/25 07:23:10;;;;;;;5.93;3.70;;;12.70;55.30;;;;;;5055029;28;20611;-79
2021/04/25 07:25:36;;;;;;;5.63;3.63;;;12.80;55.10;;;;;;5073419;28;20579;-79
2021/04/25 07:28:02;;;;;;;5.17;4.20;;;12.90;54.90;;;;;;5055949;28;20618;-79
2021/04/25 07:30:28;;;;;;;4.47;3.17;;;13.10;55.30;;;;;;5074405;28;20633;-79
2021/04/25 07:32:54;;;;;;;4.80;3.70;;;13.90;56.90;;;;;;5072996;28;20578;-79
2021/04/25 07:35:19;;;;;;;4.93;3.00;;;14.60;57.00;;;;;;5073648;28;20173;-79
2021/04/25 07:37:47;;;;;;;4.77;3.90;;;15.30;57.00;;;;;;5072460;28;20574;-79
2021/04/25 07:40:14;;;;;;;4.67;3.40;;;15.90;57.10;;;;;;5055756;28;20575;-79
2021/04/25 07:42:40;;;;;;;5.40;3.80;;;16.70;56.70;;;;;;5075151;28;20570;-79
2021/04/25 07:45:14;;;;;;;5.43;4.27;;;17.80;56.80;;;;;;5076370;28;20570;-80
2021/04/25 07:47:42;;;;;;;3.53;3.10;;;18.80;55.20;;;;;;5074267;28;20223;-81
2021/04/25 07:50:09;;;;;;;3.37;2.73;;;19.80;55.20;;;;;;5093212;28;20657;-81
2021/04/25 07:52:35;;;;;;;4.03;3.37;;;20.80;55.10;;;;;;5091766;28;20589;-81
2021/04/25 07:55:03;;;;;;;4.80;2.33;;;21.70;53.70;;;;;;5091700;28;20634;-81
2021/04/25 07:57:29;;;;;;;3.47;2.50;;;22.70;53.60;;;;;;5090482;28;20606;-81
2021/04/25 07:59:55;;;;;;;3.00;2.73;;;23.60;53.20;;;;;;5088955;28;20582;-81
2021/04/25 08:02:22;;;;;;;3.20;2.80;;;24.40;49.90;;;;;;5090537;28;20224;-81
2021/04/25 08:04:49;;;;;;;3.20;2.70;;;24.80;48.50;;;;;;5075432;28;20172;-80
2021/04/25 08:07:17;;;;;;;5.40;3.20;;;25.00;47.10;;;;;;5082486;28;20630;-80
2021/04/25 08:09:44;;;;;;;8.40;4.30;;;25.30;46.60;;;;;;5088970;28;20636;-80
2021/04/25 08:12:10;;;;;;;3.23;2.93;;;25.30;45.20;;;;;;5101013;28;20584;-79
2021/04/25 08:14:37;;;;;;;4.17;3.60;;;25.10;43.80;;;;;;5103008;28;20566;-80
2021/04/25 08:17:02;;;;;;;4.33;3.80;;;24.60;42.90;;;;;;5084195;28;20617;-79
2021/04/25 08:19:28;;;;;;;4.33;3.43;;;24.00;42.20;;;;;;5100718;28;20634;-80
2021/04/25 08:21:54;;;;;;;5.27;3.80;;;23.70;42.80;;;;;;5085496;28;20586;-78
2021/04/25 08:24:21;;;;;;;4.10;3.70;;;23.60;42.90;;;;;;5082234;28;20659;-80
2021/04/25 08:26:47;;;;;;;3.40;3.10;;;23.70;43.10;;;;;;5082187;28;20184;-80
2021/04/25 08:29:13;;;;;;;4.67;4.20;;;23.90;43.20;;;;;;5085233;28;20625;-80
2021/04/25 08:31:39;;;;;;;3.93;3.63;;;24.20;43.50;;;;;;5081515;28;20164;-80
2021/04/25 08:34:04;;;;;;;4.53;3.73;;;24.70;43.90;;;;;;5061047;28;20986;-80
2021/04/25 08:36:30;;;;;;;3.60;3.30;;;25.10;43.40;;;;;;5066927;28;20211;-80
2021/04/25 08:38:56;;;;;;;5.23;4.67;;;25.50;43.20;;;;;;5067887;28;20581;-80
2021/04/25 08:41:23;;;;;;;4.80;4.40;;;25.80;41.60;;;;;;5066196;28;20168;-80
2021/04/25 08:43:49;;;;;;;3.90;3.40;;;26.10;41.40;;;;;;5071224;28;20275;-80
2021/04/25 08:46:20;;;;;;;5.27;4.10;;;26.10;40.60;;;;;;5068066;28;20606;-79
2021/04/25 08:48:50;;;;;;;3.90;3.50;;;26.40;40.50;;;;;;5077714;28;21135;-79
2021/04/25 08:51:17;;;;;;;7.33;5.47;;;26.50;40.90;;;;;;5077860;28;21125;-79
2021/04/25 08:53:45;;;;;;;4.00;3.70;;;26.80;39.10;;;;;;5078849;28;20570;-78
2021/04/25 08:56:11;;;;;;;5.40;4.90;;;27.00;39.80;;;;;;5071372;28;20626;-79
2021/04/25 08:58:37;;;;;;;4.63;4.23;;;27.10;38.60;;;;;;5075738;28;20555;-78
2021/04/25 09:01:05;;;;;;;6.27;4.13;;;27.30;38.10;;;;;;5075062;28;21129;-78
2021/04/25 09:03:31;;;;;;;5.37;4.87;;;27.40;38.00;;;;;;5076064;28;21074;-79
2021/04/25 09:05:59;;;;;;;5.67;5.20;;;27.50;37.50;;;;;;5078203;28;20626;-79
2021/04/25 09:08:43;;;;;;;4.33;3.93;;;27.60;36.90;;;;;;5084481;28;20382;-79
2021/04/25 09:11:30;;;;;;;4.20;3.70;;;27.80;37.30;;;;;;5084624;28;20711;-79
2021/04/25 09:14:25;;;;;;;4.10;3.70;;;27.90;36.90;;;;;;5078844;28;21224;-79
2021/04/25 09:16:54;;;;;;;5.80;5.30;;;28.20;37.30;;;;;;5075394;28;20966;-80
2021/04/25 09:19:21;;;;;;;4.77;4.37;;;28.40;36.30;;;;;;5075682;28;20586;-79
2021/04/25 09:22:01;;;;;;;4.80;4.40;;;28.50;35.60;;;;;;5087777;28;20943;-79
2021/04/25 09:24:29;;;;;;;5.87;5.27;;;28.50;34.90;;;;;;5054354;28;20609;-79
2021/04/25 09:26:56;;;;;;;5.83;5.37;;;28.50;35.00;;;;;;5086845;28;20616;-80
2021/04/25 09:29:25;;;;;;;7.10;6.53;;;28.50;34.50;;;;;;5090261;28;20633;-80
2021/04/25 09:31:52;;;;;;;6.73;6.13;;;28.50;34.10;;;;;;5071995;28;20590;-80
2021/04/25 09:34:29;;;;;;;7.90;5.30;;;28.40;33.80;;;;;;5063346;28;20571;-80
2021/04/25 09:36:56;;;;;;;5.83;5.43;;;28.50;33.90;;;;;;5078391;28;21160;-80
2021/04/25 09:39:23;;;;;;;5.80;5.23;;;28.50;34.50;;;;;;5079768;28;21102;-80
2021/04/25 09:41:49;;;;;;;6.60;6.10;;;28.40;33.20;;;;;;5076568;28;20562;-78
2021/04/25 09:44:28;;;;;;;6.27;5.77;;;28.40;33.10;;;;;;5076536;28;20574;-78
2021/04/25 09:46:57;;;;;;;7.50;6.80;;;28.50;33.20;;;;;;5075151;28;20582;-79
2021/04/25 09:49:42;;;;;;;6.50;5.97;;;28.40;32.60;;;;;;5077225;28;20617;-80
2021/04/25 09:52:09;;;;;;;7.70;7.00;;;28.40;32.70;;;;;;5075398;28;20566;-79
2021/04/25 09:54:35;;;;;;;6.40;5.90;;;28.30;32.70;;;;;;5073718;28;21051;-79
2021/04/25 09:57:01;;;;;;;5.77;5.27;;;28.40;33.00;;;;;;5073730;28;20605;-79
2021/04/25 09:59:27;;;;;;;6.27;5.77;;;28.40;33.10;;;;;;5074543;28;20667;-78
2021/04/25 10:02:07;;;;;;;5.73;5.23;;;28.60;33.00;;;;;;5075535;28;20662;-78
2021/04/25 10:04:37;;;;;;;5.90;4.40;;;28.70;32.80;;;;;;5075799;28;20535;-79
2021/04/25 10:07:10;;;;;;;5.73;4.20;;;28.80;32.20;;;;;;5077120;28;20981;-78
2021/04/25 10:09:36;;;;;;;5.70;5.20;;;28.80;32.00;;;;;;5076753;28;21215;-79
2021/04/25 10:12:03;;;;;;;5.43;3.80;;;28.80;32.10;;;;;;5060444;28;20661;-79
2021/04/25 10:14:34;;;;;;;4.07;3.40;;;28.80;31.70;;;;;;5059144;28;20619;-79
2021/04/25 10:17:02;;;;;;;7.87;3.50;;;28.70;32.50;;;;;;5058857;28;20598;-78
2021/04/25 10:19:29;;;;;;;4.13;3.73;;;28.70;31.00;;;;;;5044070;28;20887;-79
2021/04/25 10:21:55;;;;;;;4.47;3.33;;;28.70;31.70;;;;;;5077339;28;20932;-79
2021/04/25 10:24:22;;;;;;;3.23;2.93;;;28.80;31.80;;;;;;5074077;28;20570;-79
2021/04/25 10:27:05;;;;;;;5.90;2.90;;;28.80;32.10;;;;;;5055219;28;20602;-78
2021/04/25 10:29:44;;;;;;;4.43;3.47;;;28.80;31.70;;;;;;5073456;28;20610;-79
2021/04/25 10:32:11;;;;;;;2.97;2.60;;;28.90;31.20;;;;;;5073427;28;20577;-78
2021/04/25 10:34:37;;;;;;;3.07;2.77;;;28.90;31.60;;;;;;5073504;28;20559;-78
2021/04/25 10:37:06;;;;;;;3.13;2.83;;;28.80;30.90;;;;;;5055069;28;20591;-79
2021/04/25 10:39:37;;;;;;;4.60;3.03;;;28.70;31.20;;;;;;5055171;28;20589;-79
2021/04/25 10:45:07;;;;;;;5.67;3.40;;;28.10;30.20;;;;;;5073394;28;20617;-78
2021/04/25 10:47:36;;;;;;;4.37;3.17;;;27.60;30.50;;;;;;5053308;28;20617;-78
2021/04/25 10:50:14;;;;;;;3.17;2.73;;;27.00;30.40;;;;;;5055520;28;20623;-78
2021/04/25 10:52:43;;;;;;;2.90;2.43;;;26.70;31.00;;;;;;5073680;28;20655;-79
2021/04/25 10:55:18;;;;;;;3.60;2.43;;;26.40;31.10;;;;;;5073521;28;20559;-78
2021/04/25 11:03:08;;;;;;;3.20;2.43;;;26.00;31.60;;;;;;5073247;28;20613;-79
2021/04/25 11:05:40;;;;;;;5.13;2.70;;;25.90;31.60;;;;;;5071964;28;21054;-79
2021/04/25 11:08:26;;;;;;;3.70;2.63;;;25.80;31.40;;;;;;5054347;28;20633;-79
2021/04/25 11:11:08;;;;;;;4.40;2.20;;;25.60;31.60;;;;;;5072397;28;20586;-79
2021/04/25 11:13:40;;;;;;;2.60;2.40;;;25.40;31.50;;;;;;5081486;28;20926;-80
2021/04/25 11:16:07;;;;;;;3.30;2.83;;;25.20;31.90;;;;;;5073433;28;21119;-79
2021/04/25 11:18:47;;;;;;;3.73;3.27;;;25.00;31.90;;;;;;5072299;28;20933;-79
2021/04/25 11:21:28;;;;;;;3.03;2.70;;;24.80;32.20;;;;;;5074088;28;20570;-79
2021/04/25 11:24:03;;;;;;;3.43;3.13;;;24.80;32.50;;;;;;5074979;28;20645;-79
2021/04/25 11:26:35;;;;;;;3.93;3.00;;;24.80;32.80;;;;;;5076035;28;20606;-79
2021/04/25 11:29:12;;;;;;;3.80;2.97;;;24.70;32.70;;;;;;5073743;28;20787;-79
2021/04/25 11:34:31;;;;;;;7.80;4.10;;;24.60;32.60;;;;;;5055926;28;20687;-79
2021/04/25 11:36:58;;;;;;;4.27;3.27;;;24.50;32.00;;;;;;5078002;28;20601;-79
2021/04/25 11:39:27;;;;;;;3.60;3.10;;;24.30;32.00;;;;;;5080137;28;20571;-79
2021/04/25 11:41:54;;;;;;;5.03;4.13;;;24.20;32.30;;;;;;5046013;28;20585;-79
2021/04/25 11:44:25;;;;;;;8.27;4.00;;;24.10;32.40;;;;;;5066166;28;20586;-79
2021/04/25 11:46:51;;;;;;;4.40;3.47;;;24.00;32.40;;;;;;5082675;28;20600;-79
2021/04/25 11:49:27;;;;;;;3.63;3.20;;;23.90;32.60;;;;;;5079753;28;20629;-79
2021/04/25 11:52:09;;;;;;;3.50;3.17;;;23.70;32.40;;;;;;5083037;28;20601;-79
2021/04/25 11:54:36;;;;;;;3.50;3.20;;;23.60;32.50;;;;;;5060330;28;20563;-79
2021/04/25 11:57:20;;;;;;;4.40;4.00;;;23.50;32.60;;;;;;5078537;28;21081;-79
2021/04/25 12:00:00;;;;;;;6.10;3.70;;;23.40;32.40;;;;;;5077831;28;20626;-79
2021/04/25 12:02:36;;;;;;;3.23;2.93;;;23.30;32.60;;;;;;5063388;28;20567;-79
2021/04/25 12:05:11;;;;;;;3.40;2.73;;;23.20;32.50;;;;;;5079375;28;20559;-80
2021/04/25 12:07:40;;;;;;;3.77;2.97;;;23.10;33.00;;;;;;5077838;28;20592;-79
2021/04/25 12:10:08;;;;;;;4.50;3.27;;;23.00;32.90;;;;;;5074276;28;20614;-79
2021/04/25 12:12:34;;;;;;;3.83;3.13;;;22.90;33.00;;;;;;5075624;28;20563;-80
2021/04/25 12:15:03;;;;;;;6.90;3.80;;;22.80;32.70;;;;;;5040485;28;20592;-80
2021/04/25 12:17:30;;;;;;;4.40;3.27;;;22.50;32.30;;;;;;5073465;28;20250;-80
2021/04/25 12:20:01;;;;;;;4.60;3.27;;;22.30;32.30;;;;;;5041631;28;20694;-79
2021/04/25 12:22:28;;;;;;;5.70;3.07;;;22.00;32.60;;;;;;5075657;28;20562;-79
2021/04/25 12:24:58;;;;;;;4.17;3.43;;;21.90;32.80;;;;;;5075778;28;20594;-79
2021/04/25 12:27:27;;;;;;;4.43;4.03;;;21.70;32.80;;;;;;5074716;28;20590;-79
2021/04/25 12:29:58;;;;;;;3.43;3.13;;;21.60;32.90;;;;;;5075743;28;20611;-80
2021/04/25 12:32:24;;;;;;;4.20;3.77;;;21.50;33.30;;;;;;5058246;28;20563;-79
2021/04/25 12:35:04;;;;;;;5.10;4.60;;;21.40;33.20;;;;;;5041584;28;20562;-80
2021/04/25 12:37:43;;;;;;;4.83;4.40;;;21.30;33.00;;;;;;5074096;28;20597;-78
2021/04/25 12:40:32;;;;;;;4.70;4.13;;;21.00;32.80;;;;;;5059752;28;20571;-78
2021/04/25 12:43:13;;;;;;;3.53;3.23;;;20.80;32.60;;;;;;5058327;28;20579;-79
2021/04/25 12:45:41;;;;;;;4.53;3.37;;;20.60;33.00;;;;;;5058386;28;20573;-80
2021/04/25 12:48:31;;;;;;;6.67;4.83;;;20.30;32.30;;;;;;5077007;28;20562;-79
2021/04/25 12:51:03;;;;;;;4.50;4.10;;;20.00;32.20;;;;;;5076942;28;20574;-78
2021/04/25 12:53:30;;;;;;;4.20;3.80;;;19.70;32.10;;;;;;5054976;28;20555;-80
2021/04/25 12:56:14;;;;;;;6.65;5.30;;;19.40;32.00;;;;;;5082717;28;20828;-80
2021/04/25 12:58:59;;;;;;;5.70;4.70;;;19.10;32.10;;;;;;5061633;28;20180;-80
2021/04/25 13:01:25;;;;;;;6.30;3.83;;;18.70;32.30;;;;;;5049064;28;20573;-80
2021/04/25 13:03:51;;;;;;;5.27;4.07;;;18.40;31.90;;;;;;5062498;28;20664;-78
2021/04/25 13:06:25;;;;;;;5.17;3.97;;;18.20;32.30;;;;;;5082854;28;20620;-80
2021/04/25 13:08:51;;;;;;;4.23;3.30;;;17.90;32.60;;;;;;5073902;28;20211;-78